Time,TemperatureF,DewpointF,PressureIn,WindDirection,WindDirectionDegrees,WindSpeedMPH,WindSpeedGustMPH,Humidity,HourlyPrecipIn,Conditions,Clouds,dailyrainin,SoftwareType,DateUTC
2013-03-11 00:00:00,50.1,38.8,30.08,East,91,0.0,1.0,65,0.00,,CLR,0.00,VWS V14.00,2013-03-11 04:00:00,
2013-03-11 00:27:00,49.7,38.8,30.08,East,90,0.0,1.0,66,0.00,,CLR,0.00,VWS V14.00,2013-03-11 04:27:00,
2013-03-11 00:30:00,49.7,38.8,30.08,East,90,0.0,1.0,66,0.00,,CLR,0.00,VWS V14.00,2013-03-11 04:30:00,
2013-03-11 00:57:00,47.7,38.4,30.07,East,90,0.0,1.0,70,0.00,,CLR,0.00,VWS V14.00,2013-03-11 04:57:00,
2013-03-11 01:00:00,47.7,38.4,30.07,East,90,0.0,1.0,70,0.00,,CLR,0.00,VWS V14.00,2013-03-11 05:00:00,
2013-03-11 01:27:00,48.2,38.9,30.07,SSE,152,0.0,1.0,70,0.00,,CLR,0.00,VWS V14.00,2013-03-11 05:27:00,
2013-03-11 01:30:00,48.2,38.9,30.07,SSE,152,0.0,1.0,70,0.00,,CLR,0.00,VWS V14.00,2013-03-11 05:30:00,
2013-03-11 01:57:00,48.7,40.5,30.06,ENE,70,0.0,5.0,73,0.00,,CLR,0.00,VWS V14.00,2013-03-11 05:57:00,
2013-03-11 02:00:00,48.7,40.5,30.06,ENE,70,0.0,5.0,73,0.00,,CLR,0.00,VWS V14.00,2013-03-11 06:00:00,
2013-03-11 02:27:00,48.7,40.8,30.06,ESE,119,0.0,4.0,74,0.00,,CLR,0.00,VWS V14.00,2013-03-11 06:27:00,
2013-03-11 02:30:00,48.7,40.8,30.06,ESE,119,0.0,4.0,74,0.00,,CLR,0.00,VWS V14.00,2013-03-11 06:30:00,
2013-03-11 02:57:00,48.3,40.8,30.06,ESE,113,0.0,1.0,75,0.00,,CLR,0.00,VWS V14.00,2013-03-11 06:57:00,
2013-03-11 03:00:00,48.3,40.8,30.06,ESE,113,0.0,1.0,75,0.00,,CLR,0.00,VWS V14.00,2013-03-11 07:00:00,
2013-03-11 03:27:00,48.2,41.0,30.05,NE,49,0.0,3.0,76,0.00,,CLR,0.00,VWS V14.00,2013-03-11 07:27:00,
2013-03-11 03:30:00,48.2,41.0,30.05,NE,49,0.0,3.0,76,0.00,,CLR,0.00,VWS V14.00,2013-03-11 07:30:00,
2013-03-11 03:57:00,47.4,40.6,30.03,NE,49,0.0,0.0,77,0.00,,CLR,0.00,VWS V14.00,2013-03-11 07:57:00,
2013-03-11 04:00:00,47.4,40.6,30.03,NE,49,0.0,0.0,77,0.00,,CLR,0.00,VWS V14.00,2013-03-11 08:00:00,
2013-03-11 04:27:00,45.7,39.6,30.03,NNW,330,0.0,2.0,79,0.00,,CLR,0.00,VWS V14.00,2013-03-11 08:27:00,
2013-03-11 04:30:00,45.7,39.6,30.03,NNW,330,0.0,2.0,79,0.00,,CLR,0.00,VWS V14.00,2013-03-11 08:30:00,
2013-03-11 04:57:00,43.6,38.8,30.02,NNW,330,0.0,1.0,83,0.00,,CLR,0.00,VWS V14.00,2013-03-11 08:57:00,
2013-03-11 05:00:00,43.6,38.8,30.02,NNW,330,0.0,1.0,83,0.00,,CLR,0.00,VWS V14.00,2013-03-11 09:00:00,
2013-03-11 05:27:00,43.2,38.4,30.01,NNW,330,0.0,0.0,83,0.00,,CLR,0.00,VWS V14.00,2013-03-11 09:27:00,
2013-03-11 05:30:00,43.2,38.4,30.01,NNW,330,0.0,0.0,83,0.00,,CLR,0.00,VWS V14.00,2013-03-11 09:30:00,
2013-03-11 05:57:00,42.5,38.6,30.01,NNW,330,0.0,0.0,86,0.00,,CLR,0.00,VWS V14.00,2013-03-11 09:57:00,
2013-03-11 06:00:00,42.5,38.6,30.01,NNW,330,0.0,0.0,86,0.00,,CLR,0.00,VWS V14.00,2013-03-11 10:00:00,
2013-03-11 06:27:00,43.0,38.8,30.00,NNW,330,0.0,0.0,85,0.00,,CLR,0.00,VWS V14.00,2013-03-11 10:27:00,
2013-03-11 06:30:00,43.0,38.8,30.00,NNW,330,0.0,0.0,85,0.00,,CLR,0.00,VWS V14.00,2013-03-11 10:30:00,
2013-03-11 06:57:00,42.4,38.2,30.00,NNW,330,0.0,1.0,85,0.00,,CLR,0.00,VWS V14.00,2013-03-11 10:57:00,
2013-03-11 07:00:00,42.4,38.2,30.00,NNW,330,0.0,1.0,85,0.00,,CLR,0.00,VWS V14.00,2013-03-11 11:00:00,
2013-03-11 07:27:00,41.6,38.0,30.01,NW,307,0.0,2.0,87,0.00,,CLR,0.00,VWS V14.00,2013-03-11 11:27:00,
2013-03-11 07:30:00,41.6,38.0,30.01,NW,307,0.0,2.0,87,0.00,,CLR,0.00,VWS V14.00,2013-03-11 11:30:00,
2013-03-11 07:57:00,42.5,38.9,30.00,NW,307,0.0,0.0,87,0.00,,CLR,0.00,VWS V14.00,2013-03-11 11:57:00,
2013-03-11 08:00:00,42.5,38.9,30.00,NW,307,0.0,0.0,87,0.00,,CLR,0.00,VWS V14.00,2013-03-11 12:00:00,
2013-03-11 08:27:00,43.5,39.6,30.01,NW,307,0.0,0.0,86,0.00,,CLR,0.00,VWS V14.00,2013-03-11 12:27:00,
2013-03-11 08:30:00,43.5,39.6,30.01,NW,307,0.0,0.0,86,0.00,,CLR,0.00,VWS V14.00,2013-03-11 12:30:00,
2013-03-11 08:57:00,44.4,40.8,30.02,NW,307,0.0,0.0,87,0.00,,CLR,0.00,VWS V14.00,2013-03-11 12:57:00,
2013-03-11 09:00:00,44.4,40.8,30.02,NW,307,0.0,0.0,87,0.00,,CLR,0.00,VWS V14.00,2013-03-11 13:00:00,
2013-03-11 09:27:00,45.5,41.3,30.02,NW,307,0.0,0.0,85,0.00,,CLR,0.00,VWS V14.00,2013-03-11 13:27:00,
2013-03-11 09:30:00,45.5,41.3,30.02,NW,307,0.0,0.0,85,0.00,,CLR,0.00,VWS V14.00,2013-03-11 13:30:00,
2013-03-11 09:57:00,46.9,39.1,30.01,NE,52,0.0,1.0,74,0.00,,CLR,0.00,VWS V14.00,2013-03-11 13:57:00,
2013-03-11 10:00:00,46.9,39.1,30.01,NE,52,0.0,1.0,74,0.00,,CLR,0.00,VWS V14.00,2013-03-11 14:00:00,
2013-03-11 10:27:00,50.4,40.2,30.00,NNE,21,0.0,4.0,68,0.00,,CLR,0.00,VWS V14.00,2013-03-11 14:27:00,
2013-03-11 10:30:00,50.4,40.2,30.00,NNE,21,0.0,4.0,68,0.00,,CLR,0.00,VWS V14.00,2013-03-11 14:30:00,
2013-03-11 10:57:00,51.6,42.5,29.99,NNW,342,0.0,2.0,71,0.00,,CLR,0.00,VWS V14.00,2013-03-11 14:57:00,
2013-03-11 11:00:00,51.6,42.5,29.99,NNW,342,0.0,2.0,71,0.00,,CLR,0.00,VWS V14.00,2013-03-11 15:00:00,
2013-03-11 11:27:00,55.2,47.4,29.98,SSW,193,0.0,4.0,75,0.00,,CLR,0.00,VWS V14.00,2013-03-11 15:27:00,
2013-03-11 11:30:00,55.2,47.4,29.98,SSW,193,0.0,4.0,75,0.00,,CLR,0.00,VWS V14.00,2013-03-11 15:30:00,
2013-03-11 11:57:00,57.8,48.8,29.97,SSE,165,0.0,4.0,72,0.00,,CLR,0.00,VWS V14.00,2013-03-11 15:57:00,
2013-03-11 12:00:00,57.8,48.8,29.97,SSE,165,0.0,4.0,72,0.00,,CLR,0.00,VWS V14.00,2013-03-11 16:00:00,
2013-03-11 12:27:00,59.0,50.4,29.95,SSW,203,0.0,3.0,73,0.00,,CLR,0.00,VWS V14.00,2013-03-11 16:27:00,
2013-03-11 12:30:00,59.0,50.4,29.95,SSW,203,0.0,3.0,73,0.00,,CLR,0.00,VWS V14.00,2013-03-11 16:30:00,
2013-03-11 12:57:00,62.1,52.2,29.94,South,180,0.0,5.0,70,0.00,,CLR,0.00,VWS V14.00,2013-03-11 16:57:00,
2013-03-11 13:00:00,62.1,52.2,29.94,South,180,0.0,5.0,70,0.00,,CLR,0.00,VWS V14.00,2013-03-11 17:00:00,
2013-03-11 13:27:00,64.2,53.0,29.91,North,5,0.0,7.0,67,0.00,,CLR,0.00,VWS V14.00,2013-03-11 17:27:00,
2013-03-11 13:30:00,64.2,53.0,29.91,North,5,0.0,7.0,67,0.00,,CLR,0.00,VWS V14.00,2013-03-11 17:30:00,
2013-03-11 13:57:00,66.6,54.1,29.90,SE,142,0.0,6.0,64,0.00,,CLR,0.00,VWS V14.00,2013-03-11 17:57:00,
2013-03-11 14:00:00,66.6,54.1,29.90,SE,142,0.0,6.0,64,0.00,,CLR,0.00,VWS V14.00,2013-03-11 18:00:00,
2013-03-11 14:27:00,65.7,54.5,29.86,SSW,213,0.0,6.0,67,0.00,,CLR,0.00,VWS V14.00,2013-03-11 18:27:00,
2013-03-11 14:30:00,65.7,54.5,29.86,SSW,213,0.0,6.0,67,0.00,,CLR,0.00,VWS V14.00,2013-03-11 18:30:00,
2013-03-11 14:57:00,67.3,54.7,29.83,SE,146,2.0,7.0,64,0.00,,CLR,0.00,VWS V14.00,2013-03-11 18:57:00,
2013-03-11 15:00:00,67.3,54.7,29.83,SE,146,2.0,7.0,64,0.00,,CLR,0.00,VWS V14.00,2013-03-11 19:00:00,
2013-03-11 15:27:00,67.4,53.5,29.82,SW,222,1.0,7.0,61,0.00,,CLR,0.00,VWS V14.00,2013-03-11 19:27:00,
2013-03-11 15:30:00,67.4,53.5,29.82,SW,222,1.0,7.0,61,0.00,,CLR,0.00,VWS V14.00,2013-03-11 19:30:00,
2013-03-11 15:57:00,66.5,53.1,29.82,SE,134,1.0,6.0,62,0.00,,CLR,0.00,VWS V14.00,2013-03-11 19:57:00,
2013-03-11 16:00:00,66.5,53.1,29.82,SE,134,1.0,6.0,62,0.00,,CLR,0.00,VWS V14.00,2013-03-11 20:00:00,
2013-03-11 16:27:00,67.2,52.9,29.80,SSW,207,3.0,9.0,60,0.00,,CLR,0.00,VWS V14.00,2013-03-11 20:27:00,
2013-03-11 16:30:00,67.2,52.9,29.80,SSW,207,3.0,9.0,60,0.00,,CLR,0.00,VWS V14.00,2013-03-11 20:30:00,
2013-03-11 16:57:00,66.5,52.7,29.79,SE,138,1.0,7.0,61,0.00,,CLR,0.00,VWS V14.00,2013-03-11 20:57:00,
2013-03-11 17:00:00,66.5,52.7,29.79,SE,138,1.0,7.0,61,0.00,,CLR,0.00,VWS V14.00,2013-03-11 21:00:00,
2013-03-11 17:27:00,65.9,52.1,29.79,SSE,151,3.0,6.0,61,0.00,,CLR,0.00,VWS V14.00,2013-03-11 21:27:00,
2013-03-11 17:30:00,65.9,52.1,29.79,SSE,151,3.0,6.0,61,0.00,,CLR,0.00,VWS V14.00,2013-03-11 21:30:00,
2013-03-11 17:57:00,65.0,52.1,29.77,South,169,1.0,9.0,63,0.00,,CLR,0.00,VWS V14.00,2013-03-11 21:57:00,
2013-03-11 18:00:00,65.0,52.1,29.77,South,169,1.0,9.0,63,0.00,,CLR,0.00,VWS V14.00,2013-03-11 22:00:00,
2013-03-11 18:27:00,64.6,52.2,29.79,West,262,1.0,5.0,64,0.00,,CLR,0.00,VWS V14.00,2013-03-11 22:27:00,
2013-03-11 18:30:00,64.6,52.2,29.79,West,262,1.0,5.0,64,0.00,,CLR,0.00,VWS V14.00,2013-03-11 22:30:00,
2013-03-11 18:57:00,63.9,52.3,29.79,South,178,0.0,5.0,66,0.00,,CLR,0.00,VWS V14.00,2013-03-11 22:57:00,
2013-03-11 19:00:00,63.9,52.3,29.79,South,178,0.0,5.0,66,0.00,,CLR,0.00,VWS V14.00,2013-03-11 23:00:00,
2013-03-11 19:27:00,61.8,52.3,29.78,ESE,102,0.0,6.0,71,0.00,,CLR,0.00,VWS V14.00,2013-03-11 23:27:00,
2013-03-11 19:30:00,61.8,52.3,29.78,ESE,102,0.0,6.0,71,0.00,,CLR,0.00,VWS V14.00,2013-03-11 23:30:00,
2013-03-11 19:57:00,62.0,52.5,29.76,SE,141,0.0,5.0,71,0.00,,CLR,0.00,VWS V14.00,2013-03-11 23:57:00,
2013-03-11 20:00:00,62.0,52.5,29.76,SE,141,0.0,5.0,71,0.00,,CLR,0.00,VWS V14.00,2013-03-12 00:00:00,
2013-03-11 20:23:00,60.6,54.8,29.77,SW,220,0.0,0.0,81,0.01,,CLR,0.01,VWS V14.00,2013-03-12 00:23:00,
2013-03-11 20:28:00,59.7,54.9,29.79,South,183,0.0,3.0,84,0.02,,CLR,0.02,VWS V14.00,2013-03-12 00:28:00,
2013-03-11 20:33:00,59.0,54.8,29.79,South,183,0.0,3.0,86,0.04,,CLR,0.04,VWS V14.00,2013-03-12 00:33:00,
2013-03-11 20:38:00,58.2,54.7,29.79,South,183,0.0,3.0,88,0.05,,CLR,0.05,VWS V14.00,2013-03-12 00:38:00,
2013-03-11 20:43:00,57.6,54.4,29.78,South,183,0.0,3.0,89,0.06,,CLR,0.06,VWS V14.00,2013-03-12 00:43:00,
2013-03-11 20:48:00,57.3,54.4,29.78,South,183,0.0,3.0,90,0.06,,CLR,0.06,VWS V14.00,2013-03-12 00:48:00,
2013-03-11 20:53:00,57.1,54.5,29.78,South,183,0.0,3.0,91,0.06,,CLR,0.06,VWS V14.00,2013-03-12 00:53:00,
2013-03-11 20:58:00,56.9,54.6,29.77,South,183,0.0,0.0,92,0.07,,CLR,0.07,VWS V14.00,2013-03-12 00:58:00,
2013-03-11 21:03:00,56.8,54.5,29.77,South,183,0.0,0.0,92,0.07,,CLR,0.07,VWS V14.00,2013-03-12 01:03:00,
2013-03-11 21:08:00,56.7,54.4,29.77,South,183,0.0,0.0,92,0.08,,CLR,0.08,VWS V14.00,2013-03-12 01:08:00,
2013-03-11 21:14:00,56.6,54.6,29.77,South,183,0.0,0.0,93,0.09,,CLR,0.09,VWS V14.00,2013-03-12 01:14:00,
2013-03-11 21:18:00,56.4,54.4,29.77,South,183,2.0,3.0,93,0.09,,CLR,0.09,VWS V14.00,2013-03-12 01:18:00,
2013-03-11 21:23:00,56.3,54.3,29.77,South,183,0.0,3.0,93,0.10,,CLR,0.10,VWS V14.00,2013-03-12 01:23:00,
2013-03-11 21:28:00,56.2,54.5,29.78,South,183,0.0,1.0,94,0.09,,CLR,0.11,VWS V14.00,2013-03-12 01:28:00,
2013-03-11 21:33:00,56.1,54.4,29.78,South,183,0.0,1.0,94,0.11,,CLR,0.13,VWS V14.00,2013-03-12 01:33:00,
2013-03-11 21:38:00,56.0,54.3,29.78,South,183,0.0,1.0,94,0.12,,CLR,0.14,VWS V14.00,2013-03-12 01:38:00,
2013-03-11 21:43:00,56.0,54.3,29.79,South,183,0.0,1.0,94,0.14,,CLR,0.16,VWS V14.00,2013-03-12 01:43:00,
2013-03-11 21:49:00,55.9,54.2,29.79,South,183,0.0,1.0,94,0.15,,CLR,0.17,VWS V14.00,2013-03-12 01:49:00,
2013-03-11 21:54:00,55.8,54.1,29.79,South,183,0.0,1.0,94,0.16,,CLR,0.18,VWS V14.00,2013-03-12 01:54:00,
2013-03-11 21:59:00,55.8,54.4,29.77,South,181,0.0,1.0,95,0.12,,CLR,0.19,VWS V14.00,2013-03-12 01:59:00,
2013-03-11 22:04:00,55.8,54.4,29.77,South,181,0.0,1.0,95,0.12,,CLR,0.19,VWS V14.00,2013-03-12 02:04:00,
2013-03-11 22:09:00,55.7,54.3,29.77,South,180,0.0,1.0,95,0.13,,CLR,0.20,VWS V14.00,2013-03-12 02:09:00,
2013-03-11 22:14:00,55.7,54.3,29.77,South,180,0.0,1.0,95,0.15,,CLR,0.22,VWS V14.00,2013-03-12 02:14:00,
2013-03-11 22:19:00,55.7,54.3,29.77,South,181,0.0,1.0,95,0.16,,CLR,0.23,VWS V14.00,2013-03-12 02:19:00,
2013-03-11 22:24:00,55.6,54.2,29.77,South,180,0.0,1.0,95,0.17,,CLR,0.24,VWS V14.00,2013-03-12 02:24:00,
2013-03-11 22:29:00,55.6,54.2,29.78,WSW,238,3.0,5.0,95,0.13,,CLR,0.24,VWS V14.00,2013-03-12 02:29:00,
2013-03-11 22:34:00,55.6,54.2,29.78,SW,233,7.0,9.0,95,0.15,,CLR,0.26,VWS V14.00,2013-03-12 02:34:00,
2013-03-11 22:39:00,55.4,54.0,29.78,WSW,239,0.0,9.0,95,0.22,,CLR,0.33,VWS V14.00,2013-03-12 02:39:00,
2013-03-11 22:44:00,55.2,53.8,29.78,WSW,239,0.0,9.0,95,0.26,,CLR,0.37,VWS V14.00,2013-03-12 02:44:00,
2013-03-11 22:49:00,55.1,53.7,29.78,WSW,240,1.0,9.0,95,0.28,,CLR,0.39,VWS V14.00,2013-03-12 02:49:00,
2013-03-11 22:54:00,55.1,53.7,29.78,SW,224,0.0,9.0,95,0.29,,CLR,0.40,VWS V14.00,2013-03-12 02:54:00,
2013-03-11 22:59:00,55.1,53.7,29.78,SW,224,0.0,0.0,95,0.23,,CLR,0.42,VWS V14.00,2013-03-12 02:59:00,
2013-03-11 23:04:00,55.1,53.7,29.78,SW,224,0.0,0.0,95,0.25,,CLR,0.44,VWS V14.00,2013-03-12 03:04:00,
2013-03-11 23:09:00,55.1,53.7,29.78,SW,224,0.0,1.0,95,0.26,,CLR,0.45,VWS V14.00,2013-03-12 03:09:00,
2013-03-11 23:14:00,55.0,53.6,29.78,WNW,285,0.0,4.0,95,0.28,,CLR,0.47,VWS V14.00,2013-03-12 03:14:00,
2013-03-11 23:19:00,54.9,53.8,29.78,WNW,285,0.0,4.0,96,0.29,,CLR,0.48,VWS V14.00,2013-03-12 03:19:00,
2013-03-11 23:24:00,54.8,53.7,29.78,WNW,285,0.0,4.0,96,0.30,,CLR,0.49,VWS V14.00,2013-03-12 03:24:00,
2013-03-11 23:29:00,54.8,53.7,29.77,WNW,285,0.0,0.0,96,0.26,,CLR,0.50,VWS V14.00,2013-03-12 03:29:00,
2013-03-11 23:34:00,54.7,53.6,29.77,WNW,285,0.0,1.0,96,0.28,,CLR,0.52,VWS V14.00,2013-03-12 03:34:00,
2013-03-11 23:39:00,54.7,53.6,29.77,WNW,285,0.0,1.0,96,0.29,,CLR,0.53,VWS V14.00,2013-03-12 03:39:00,
2013-03-11 23:44:00,54.7,53.6,29.77,WNW,285,0.0,1.0,96,0.31,,CLR,0.55,VWS V14.00,2013-03-12 03:44:00,
2013-03-11 23:49:00,54.6,53.5,29.77,WNW,285,0.0,1.0,96,0.32,,CLR,0.56,VWS V14.00,2013-03-12 03:49:00,
2013-03-11 23:54:00,54.6,53.5,29.77,WNW,285,0.0,1.0,96,0.33,,CLR,0.57,VWS V14.00,2013-03-12 03:54:00,
2013-03-11 23:59:00,54.6,53.5,29.76,WNW,285,0.0,0.0,96,0.17,,CLR,0.00,VWS V14.00,2013-03-12 03:59:00,